Dallas, Texas
Current Conditions -  °F | °C
As of 11:53 AM on Thursday 30 Oct 2014 (Local Time) from KDAL Reporting Station
Few Clouds Few Clouds  
Wind Chill: 21°   Ceiling: Unl
Heat Index: 21°   Visibility: 10mi
Dew Point:   Wind: 12mph
Humidity: 44%   Direction: 160°SSE
Pressure: 30.16"   Gusts: NA
Location:  32.78°N, 96.79°W
Report Text: KDAL 301653Z 16010KT 10SM FEW045 21/08 A3016 RMK AO2 SLP209 T02110083
Loading
Personal Weather Stations






























Interactive Weather Map New forecast layout! Learn more

10-Day Weather Forecast

Advertisements
Track Severe Weather on mobile